Terminal Aerodrome Forecast
Issued by NWS

Home | Current Version | Previous Version | Text Only | Print | Product List | Glossary On
Versions: 1 2 3 4 5 6 7 8 9 10 11 12 13 14 15 16 17 18 19 20 21 22 23 24 25 26 27 28 29 30 31 32 33 34 35 36 37 38 39 40 41 42 43 44 45 46 47 48 49 50
000
FTUS45 KBOU 080505 AAD
TAFAPA
TAF AMD
KAPA 080505Z 0805/0824 33010KT P6SM VCTS SCT070CB BKN140
      TEMPO 0805/0807 5SM TSRA BKN050CB
     FM080700 05012KT P6SM VCSH SCT050 BKN070 BKN090
     FM080900 07008KT P6SM SCT035 BKN050
     FM081100 10006KT P6SM SCT025 BKN035
     FM081900 15011KT P6SM SCT040 SCT110
     FM082300 16012KT P6SM VCTS SCT060CB BKN110=

USA.gov is the U.S. government's official web portal to all federal, state and local government web resources and services.